createdAt,value
2022-08-31T00:01:26.102Z,18.06
2022-08-31T00:03:43.331Z,18.06
2022-08-31T00:06:00.302Z,18.07
2022-08-31T00:08:17.320Z,18.04
2022-08-31T00:10:36.984Z,18.00
2022-08-31T00:12:57.438Z,18.02
2022-08-31T00:15:14.940Z,18.01
2022-08-31T00:17:32.106Z,18.02
2022-08-31T00:19:49.595Z,18.02
2022-08-31T00:22:07.574Z,18.01
2022-08-31T00:24:24.805Z,18.03
2022-08-31T00:26:41.769Z,18.05
2022-08-31T00:28:59.288Z,18.05
2022-08-31T00:31:17.270Z,18.06
2022-08-31T00:33:34.500Z,18.11
2022-08-31T00:35:51.505Z,18.10
2022-08-31T00:38:08.465Z,18.09
2022-08-31T00:40:25.817Z,18.09
2022-08-31T00:42:43.162Z,18.09
2022-08-31T00:45:00.223Z,18.04
2022-08-31T00:47:17.349Z,17.99
2022-08-31T00:49:36.614Z,18.06
2022-08-31T00:51:53.554Z,18.02
2022-08-31T00:54:10.936Z,17.96
2022-08-31T00:56:28.892Z,17.99
2022-08-31T00:58:45.793Z,17.98
2022-08-31T01:01:12.717Z,18.01
2022-08-31T01:03:30.270Z,17.96
2022-08-31T01:05:47.482Z,17.91
2022-08-31T01:08:04.444Z,17.88
2022-08-31T01:10:21.466Z,17.90
2022-08-31T01:12:38.665Z,17.89
2022-08-31T01:14:55.708Z,17.88
2022-08-31T01:17:13.582Z,17.89
2022-08-31T01:19:30.614Z,17.87
2022-08-31T01:21:47.756Z,17.88
2022-08-31T01:24:04.922Z,17.84
2022-08-31T01:26:22.222Z,17.83
2022-08-31T01:28:39.254Z,17.84
2022-08-31T01:30:58.440Z,17.84
2022-08-31T01:33:15.675Z,17.88
2022-08-31T01:35:33.247Z,17.89
2022-08-31T01:37:50.201Z,17.82
2022-08-31T01:40:08.599Z,17.81
2022-08-31T01:42:30.943Z,17.84
2022-08-31T01:44:51.292Z,17.84
2022-08-31T01:47:09.802Z,17.77
2022-08-31T01:49:26.940Z,17.70
2022-08-31T01:51:43.986Z,17.73
2022-08-31T01:54:00.994Z,17.84
2022-08-31T01:56:18.071Z,17.76
2022-08-31T01:58:35.218Z,17.74
2022-08-31T02:00:52.224Z,17.72
2022-08-31T02:03:10.270Z,17.79
2022-08-31T02:05:27.309Z,17.77
2022-08-31T02:07:44.245Z,17.74
2022-08-31T02:10:01.597Z,17.76
2022-08-31T02:12:18.674Z,17.76
2022-08-31T02:14:35.714Z,17.76
2022-08-31T02:16:53.661Z,17.74
2022-08-31T02:19:10.778Z,17.74
2022-08-31T02:21:27.780Z,17.76
2022-08-31T02:23:44.861Z,17.77
2022-08-31T02:26:01.944Z,17.80
2022-08-31T02:28:19.045Z,17.79
2022-08-31T02:30:35.961Z,17.76
2022-08-31T02:32:53.314Z,17.75
2022-08-31T02:35:11.274Z,17.74
2022-08-31T02:37:28.360Z,17.71
2022-08-31T02:39:46.635Z,17.73
2022-08-31T02:42:05.757Z,17.76
2022-08-31T02:44:25.219Z,17.79
2022-08-31T02:46:42.557Z,17.74
2022-08-31T02:48:59.889Z,17.74
2022-08-31T02:51:16.905Z,17.72
2022-08-31T02:53:34.187Z,17.70
2022-08-31T02:55:51.513Z,17.72
2022-08-31T02:58:08.597Z,17.72
2022-08-31T03:00:25.548Z,17.75
2022-08-31T03:02:42.986Z,17.69
2022-08-31T03:04:59.978Z,17.67
2022-08-31T03:07:16.974Z,17.64
2022-08-31T03:09:35.150Z,17.64
2022-08-31T03:11:52.487Z,17.68
2022-08-31T03:14:09.476Z,17.72
2022-08-31T03:16:26.615Z,17.71
2022-08-31T03:18:43.918Z,17.70
2022-08-31T03:21:01.296Z,17.66
2022-08-31T03:23:18.458Z,17.69
2022-08-31T03:25:35.737Z,17.67
2022-08-31T03:27:55.149Z,17.66
2022-08-31T03:30:12.476Z,17.63
2022-08-31T03:32:29.566Z,17.58
2022-08-31T03:34:46.819Z,17.63
2022-08-31T03:37:04.161Z,17.61
2022-08-31T03:39:21.431Z,17.62
2022-08-31T03:41:38.759Z,17.60
2022-08-31T03:43:55.858Z,17.64
2022-08-31T03:46:12.900Z,17.65
2022-08-31T03:48:30.228Z,17.65
2022-08-31T03:50:47.186Z,17.74
2022-08-31T03:53:05.322Z,17.80
2022-08-31T03:55:23.261Z,17.82
2022-08-31T03:57:40.266Z,17.82
2022-08-31T03:59:57.298Z,17.82
2022-08-31T04:02:14.313Z,17.89
2022-08-31T04:04:31.300Z,17.87
2022-08-31T04:06:48.611Z,17.88
2022-08-31T04:09:05.636Z,17.88
2022-08-31T04:11:25.535Z,17.91
2022-08-31T04:13:59.534Z,17.90
2022-08-31T04:16:16.668Z,17.92
2022-08-31T04:18:33.805Z,17.92
2022-08-31T04:20:51.747Z,17.93
2022-08-31T04:23:09.101Z,17.89
2022-08-31T04:25:26.218Z,17.85
2022-08-31T04:27:43.165Z,17.83
2022-08-31T04:30:00.423Z,17.85
2022-08-31T04:32:17.688Z,17.82
2022-08-31T04:34:34.827Z,17.78
2022-08-31T04:36:51.765Z,17.76
2022-08-31T04:39:08.888Z,17.75
2022-08-31T04:41:25.831Z,17.74
2022-08-31T04:43:42.751Z,17.76
2022-08-31T04:45:59.753Z,17.74
2022-08-31T04:48:16.772Z,17.68
2022-08-31T04:50:33.849Z,17.69
2022-08-31T04:52:58.425Z,17.64
2022-08-31T04:55:21.265Z,17.62
2022-08-31T04:57:41.223Z,17.66
2022-08-31T04:59:58.188Z,17.63
2022-08-31T05:02:15.379Z,17.63
2022-08-31T05:04:32.419Z,17.65
2022-08-31T05:06:49.431Z,17.60
2022-08-31T05:09:06.786Z,17.61
2022-08-31T05:11:25.084Z,17.63
2022-08-31T05:13:42.154Z,17.55
2022-08-31T05:16:00.266Z,17.56
2022-08-31T05:18:17.348Z,17.54
2022-08-31T05:20:34.453Z,17.54
2022-08-31T05:22:52.418Z,17.53
2022-08-31T05:25:09.498Z,17.50
2022-08-31T05:27:26.823Z,17.47
2022-08-31T05:29:43.843Z,17.49
2022-08-31T05:32:01.187Z,17.46
2022-08-31T05:34:18.193Z,17.43
2022-08-31T05:36:35.187Z,17.41
2022-08-31T05:38:52.102Z,17.40
2022-08-31T05:41:09.195Z,17.41
2022-08-31T05:43:26.260Z,17.46
2022-08-31T05:45:43.314Z,17.49
2022-08-31T05:48:00.625Z,17.47
2022-08-31T05:50:17.883Z,17.43
2022-08-31T05:52:35.173Z,17.38
2022-08-31T05:54:52.214Z,17.36
2022-08-31T05:57:09.248Z,17.34
2022-08-31T05:59:26.165Z,17.31
2022-08-31T06:01:43.254Z,17.31
2022-08-31T06:04:00.301Z,17.34
2022-08-31T06:06:18.531Z,17.36
2022-08-31T06:08:35.624Z,17.41
2022-08-31T06:10:52.592Z,17.40
2022-08-31T06:13:10.081Z,17.41
2022-08-31T06:15:27.005Z,17.38
2022-08-31T06:17:44.066Z,17.40
2022-08-31T06:20:02.926Z,17.43
2022-08-31T06:22:20.200Z,17.48
2022-08-31T06:24:37.197Z,17.50
2022-08-31T06:26:57.932Z,17.57
2022-08-31T06:29:18.170Z,17.58
2022-08-31T06:31:35.292Z,17.57
2022-08-31T06:33:55.741Z,17.64
2022-08-31T06:36:12.839Z,17.73
2022-08-31T06:38:29.978Z,17.69
2022-08-31T06:40:50.092Z,17.76
2022-08-31T06:43:07.537Z,17.71
2022-08-31T06:45:24.510Z,17.70
2022-08-31T06:47:41.489Z,17.73
2022-08-31T06:49:59.410Z,17.71
2022-08-31T06:52:16.753Z,17.71
2022-08-31T06:54:33.735Z,17.74
2022-08-31T06:56:50.761Z,17.73
2022-08-31T06:59:08.793Z,17.77
2022-08-31T07:01:26.246Z,17.73
2022-08-31T07:03:52.540Z,17.74
2022-08-31T07:06:09.879Z,17.75
2022-08-31T07:08:28.413Z,17.81
2022-08-31T07:10:45.715Z,17.85
2022-08-31T07:13:02.783Z,17.96
2022-08-31T07:15:19.742Z,18.07
2022-08-31T07:17:37.083Z,18.07
2022-08-31T07:19:54.051Z,18.01
2022-08-31T07:22:13.392Z,17.98
2022-08-31T07:24:33.006Z,18.00
2022-08-31T07:26:50.352Z,18.03
2022-08-31T07:29:07.279Z,18.08
2022-08-31T07:31:24.702Z,18.18
2022-08-31T07:33:41.740Z,18.24
2022-08-31T07:35:59.093Z,18.26
2022-08-31T07:38:16.188Z,18.36
2022-08-31T07:40:33.443Z,18.42
2022-08-31T07:42:50.523Z,18.43
2022-08-31T07:45:09.343Z,18.46
2022-08-31T07:47:29.610Z,18.51
2022-08-31T07:49:46.968Z,18.68
2022-08-31T07:52:04.289Z,18.76
2022-08-31T07:54:21.713Z,18.93
2022-08-31T07:56:40.031Z,19.04
2022-08-31T07:58:56.969Z,18.98
2022-08-31T08:01:13.918Z,19.14
2022-08-31T08:03:30.927Z,19.20
2022-08-31T08:05:48.200Z,19.16
2022-08-31T08:08:07.282Z,19.24
2022-08-31T08:10:26.797Z,19.27
2022-08-31T08:12:43.753Z,19.20
2022-08-31T08:15:01.119Z,19.28
2022-08-31T08:17:18.212Z,19.35
2022-08-31T08:19:37.657Z,19.35
2022-08-31T08:21:54.607Z,19.41
2022-08-31T08:24:11.900Z,19.34
2022-08-31T08:26:28.907Z,19.32
2022-08-31T08:28:46.234Z,19.40
2022-08-31T08:31:03.366Z,19.55
2022-08-31T08:33:21.723Z,19.43
2022-08-31T08:35:38.705Z,19.49
2022-08-31T08:37:59.108Z,19.42
2022-08-31T08:40:18.333Z,19.43
2022-08-31T08:42:35.466Z,19.58
2022-08-31T08:44:52.750Z,19.75
2022-08-31T08:47:10.098Z,20.14
2022-08-31T08:49:27.587Z,20.19
2022-08-31T08:51:44.592Z,20.38
2022-08-31T08:54:01.913Z,20.47
2022-08-31T08:56:32.717Z,20.47
2022-08-31T08:58:50.675Z,20.47
2022-08-31T09:01:07.696Z,20.48
2022-08-31T09:03:24.711Z,20.64
2022-08-31T09:05:41.683Z,20.75
2022-08-31T09:07:58.989Z,21.06
2022-08-31T09:10:16.263Z,21.48
2022-08-31T09:12:33.323Z,21.84
2022-08-31T09:14:51.240Z,22.30
2022-08-31T09:17:08.322Z,22.45
2022-08-31T09:19:25.214Z,22.44
2022-08-31T09:21:42.287Z,22.39
2022-08-31T09:23:59.258Z,22.36
2022-08-31T09:26:16.296Z,22.33
2022-08-31T09:28:33.249Z,22.19
2022-08-31T09:30:51.249Z,22.07
2022-08-31T09:33:08.337Z,21.90
2022-08-31T09:35:25.324Z,21.84
2022-08-31T09:37:42.362Z,21.70
2022-08-31T09:40:00.702Z,21.61
2022-08-31T09:42:20.281Z,21.60
2022-08-31T09:44:37.241Z,21.64
2022-08-31T09:46:54.233Z,21.66
2022-08-31T09:49:11.175Z,21.67
2022-08-31T09:51:28.187Z,21.54
2022-08-31T09:53:45.165Z,21.62
2022-08-31T09:56:02.344Z,21.72
2022-08-31T09:58:19.664Z,21.56
2022-08-31T10:00:36.628Z,21.54
2022-08-31T10:02:53.648Z,21.47
2022-08-31T10:05:10.918Z,21.41
2022-08-31T10:07:28.033Z,21.31
2022-08-31T10:09:44.989Z,21.28
2022-08-31T10:12:03.406Z,21.25
2022-08-31T10:14:20.399Z,21.21
2022-08-31T10:16:37.366Z,21.17
2022-08-31T10:18:54.322Z,21.09
2022-08-31T10:21:11.353Z,21.04
2022-08-31T10:23:28.300Z,20.98
2022-08-31T10:25:45.486Z,20.91
2022-08-31T10:28:02.744Z,20.83
2022-08-31T10:30:20.151Z,20.73
2022-08-31T10:32:38.029Z,20.60
2022-08-31T10:34:55.952Z,20.50
2022-08-31T10:37:13.041Z,20.53
2022-08-31T10:39:30.118Z,20.51
2022-08-31T10:41:47.428Z,20.48
2022-08-31T10:44:04.649Z,20.50
2022-08-31T10:46:21.775Z,20.57
2022-08-31T10:48:39.036Z,20.63
2022-08-31T10:50:56.185Z,20.61
2022-08-31T10:53:13.176Z,20.62
2022-08-31T10:55:30.233Z,20.66
2022-08-31T10:57:47.227Z,20.77
2022-08-31T11:00:04.258Z,20.75
2022-08-31T11:02:21.389Z,20.77
2022-08-31T11:04:38.755Z,20.77
2022-08-31T11:06:55.810Z,20.78
2022-08-31T11:09:14.886Z,20.87
2022-08-31T11:11:33.011Z,20.88
2022-08-31T11:13:54.462Z,20.88
2022-08-31T11:16:11.850Z,20.94
2022-08-31T11:18:29.190Z,21.00
2022-08-31T11:20:46.399Z,21.11
2022-08-31T11:23:03.797Z,21.13
2022-08-31T11:25:20.735Z,21.19
2022-08-31T11:27:39.175Z,21.30
2022-08-31T11:29:56.208Z,21.33
2022-08-31T11:32:13.215Z,21.47
2022-08-31T11:34:30.274Z,21.59
2022-08-31T11:36:47.388Z,21.65
2022-08-31T11:39:04.345Z,21.72
2022-08-31T11:41:21.653Z,21.93
2022-08-31T11:43:39.419Z,22.08
2022-08-31T11:45:57.672Z,22.29
2022-08-31T11:48:14.626Z,22.63
2022-08-31T11:50:32.649Z,22.93
2022-08-31T11:52:49.940Z,23.29
2022-08-31T11:55:06.916Z,23.70
2022-08-31T11:57:23.944Z,23.99
2022-08-31T11:59:41.011Z,24.35
2022-08-31T12:01:58.101Z,24.64
2022-08-31T12:04:18.190Z,24.92
2022-08-31T12:06:40.702Z,25.26
2022-08-31T12:08:58.046Z,25.14
2022-08-31T12:11:17.902Z,25.43
2022-08-31T12:13:36.806Z,25.79
2022-08-31T12:15:53.772Z,25.74
2022-08-31T12:18:10.870Z,25.69
2022-08-31T12:20:27.862Z,25.61
2022-08-31T12:22:45.244Z,25.36
2022-08-31T12:25:02.235Z,24.98
2022-08-31T12:27:19.210Z,24.78
2022-08-31T12:29:36.306Z,24.72
2022-08-31T12:31:53.606Z,24.77
2022-08-31T12:34:11.037Z,24.96
2022-08-31T12:36:28.113Z,25.28
2022-08-31T12:38:45.492Z,25.40
2022-08-31T12:41:02.462Z,25.55
2022-08-31T12:43:20.688Z,25.57
2022-08-31T12:45:38.001Z,25.72
2022-08-31T12:47:55.068Z,25.75
2022-08-31T12:50:13.886Z,25.42
2022-08-31T12:52:35.044Z,25.33
2022-08-31T12:54:52.118Z,25.48
2022-08-31T12:57:09.227Z,25.77
2022-08-31T12:59:45.646Z,26.06
2022-08-31T13:02:04.530Z,26.20
2022-08-31T13:04:22.096Z,26.48
2022-08-31T13:06:39.183Z,26.49
2022-08-31T13:08:56.193Z,26.28
2022-08-31T13:11:13.783Z,25.97
2022-08-31T13:13:30.975Z,25.75
2022-08-31T13:15:48.371Z,25.59
2022-08-31T13:18:05.419Z,25.68
2022-08-31T13:20:22.361Z,25.64
2022-08-31T13:22:39.415Z,25.81
2022-08-31T13:24:56.353Z,26.09
2022-08-31T13:27:13.379Z,26.30
2022-08-31T13:29:30.744Z,26.59
2022-08-31T13:31:47.836Z,26.70
2022-08-31T13:34:04.997Z,26.66
2022-08-31T13:36:22.148Z,26.73
2022-08-31T13:38:39.264Z,26.82
2022-08-31T13:40:56.236Z,26.97
2022-08-31T13:43:13.593Z,27.13
2022-08-31T13:45:31.009Z,27.10
2022-08-31T13:47:56.828Z,27.06
2022-08-31T13:50:14.845Z,26.60
2022-08-31T13:52:32.219Z,26.28
2022-08-31T13:54:49.259Z,26.17
2022-08-31T13:57:06.205Z,26.11
2022-08-31T13:59:23.609Z,26.05
2022-08-31T14:01:40.924Z,25.91
2022-08-31T14:03:58.343Z,25.96
2022-08-31T14:06:15.769Z,25.98
2022-08-31T14:08:33.179Z,25.88
2022-08-31T14:10:50.476Z,25.72
2022-08-31T14:13:08.744Z,25.58
2022-08-31T14:15:25.735Z,25.56
2022-08-31T14:17:43.169Z,25.76
2022-08-31T14:20:00.404Z,25.98
2022-08-31T14:22:18.575Z,26.24
2022-08-31T14:24:36.528Z,26.36
2022-08-31T14:26:54.105Z,26.53
2022-08-31T14:29:11.493Z,26.79
2022-08-31T14:31:28.476Z,26.82
2022-08-31T14:33:45.593Z,26.98
2022-08-31T14:36:02.627Z,27.06
2022-08-31T14:38:20.088Z,27.06
2022-08-31T14:40:38.626Z,27.19
2022-08-31T14:42:56.122Z,27.25
2022-08-31T14:45:13.161Z,27.26
2022-08-31T14:47:30.516Z,27.25
2022-08-31T14:49:47.870Z,27.44
2022-08-31T14:52:05.913Z,27.34
2022-08-31T14:54:23.031Z,27.56
2022-08-31T14:56:40.048Z,27.66
2022-08-31T14:58:57.536Z,27.66
2022-08-31T15:01:16.109Z,27.49
2022-08-31T15:03:33.531Z,27.35
2022-08-31T15:05:50.964Z,27.30
2022-08-31T15:08:07.914Z,27.51
2022-08-31T15:10:24.906Z,27.31
2022-08-31T15:12:41.897Z,27.14
2022-08-31T15:14:58.834Z,26.97
2022-08-31T15:17:19.564Z,26.54
2022-08-31T15:19:39.769Z,26.55
2022-08-31T15:21:58.900Z,26.57
2022-08-31T15:24:20.210Z,26.59
2022-08-31T15:26:37.218Z,26.69
2022-08-31T15:28:54.514Z,26.70
2022-08-31T15:31:12.611Z,26.90
2022-08-31T15:33:29.548Z,26.74
2022-08-31T15:35:46.549Z,26.79
2022-08-31T15:38:03.858Z,26.82
2022-08-31T15:40:20.970Z,27.17
2022-08-31T15:42:38.161Z,27.28
2022-08-31T15:44:55.209Z,27.45
2022-08-31T15:47:12.279Z,27.70
2022-08-31T15:49:29.506Z,27.69
2022-08-31T15:51:46.570Z,27.53
2022-08-31T15:54:21.258Z,27.55
2022-08-31T15:56:38.666Z,27.36
2022-08-31T15:58:55.704Z,27.21
2022-08-31T16:01:12.676Z,27.13
2022-08-31T16:03:33.280Z,27.12
2022-08-31T16:05:52.444Z,26.84
2022-08-31T16:08:09.516Z,26.83
2022-08-31T16:10:26.765Z,26.68
2022-08-31T16:12:44.136Z,26.65
2022-08-31T16:15:01.232Z,26.51
2022-08-31T16:17:18.231Z,26.59
2022-08-31T16:19:36.060Z,26.47
2022-08-31T16:21:53.093Z,26.21
2022-08-31T16:24:10.149Z,26.07
2022-08-31T16:26:27.457Z,25.86
2022-08-31T16:28:45.426Z,25.81
2022-08-31T16:31:02.665Z,25.81
2022-08-31T16:33:19.713Z,25.82
2022-08-31T16:35:37.074Z,25.94
2022-08-31T16:37:54.418Z,25.79
2022-08-31T16:40:12.957Z,25.68
2022-08-31T16:42:30.505Z,25.62
2022-08-31T16:44:48.095Z,25.53
2022-08-31T16:47:05.467Z,25.44
2022-08-31T16:49:22.401Z,25.36
2022-08-31T16:51:39.701Z,25.26
2022-08-31T16:53:56.783Z,25.21
2022-08-31T16:56:14.162Z,25.06
2022-08-31T17:01:08.753Z,24.82
2022-08-31T17:03:25.709Z,24.72
2022-08-31T17:05:42.939Z,24.72
2022-08-31T17:07:59.898Z,24.58
2022-08-31T17:10:17.844Z,24.54
2022-08-31T17:12:34.801Z,24.55
2022-08-31T17:14:51.769Z,24.52
2022-08-31T17:17:09.048Z,24.48
2022-08-31T17:19:26.005Z,24.41
2022-08-31T17:21:43.605Z,24.41
2022-08-31T17:24:01.109Z,24.25
2022-08-31T17:26:19.347Z,24.03
2022-08-31T17:28:36.291Z,23.97
2022-08-31T17:30:54.202Z,23.85
2022-08-31T17:33:11.245Z,23.70
2022-08-31T17:35:28.567Z,23.53
2022-08-31T17:37:45.619Z,23.40
2022-08-31T17:40:02.513Z,23.33
2022-08-31T17:42:19.486Z,23.22
2022-08-31T17:44:36.419Z,23.15
2022-08-31T17:46:53.433Z,23.06
2022-08-31T17:49:10.744Z,22.93
2022-08-31T17:51:30.147Z,22.84
2022-08-31T17:53:47.505Z,22.71
2022-08-31T17:56:04.778Z,22.61
2022-08-31T17:58:21.840Z,22.49
2022-08-31T18:00:38.813Z,22.37
2022-08-31T18:02:55.987Z,22.23
2022-08-31T18:05:14.052Z,22.18
2022-08-31T18:07:31.426Z,22.13
2022-08-31T18:09:49.176Z,21.99
2022-08-31T18:12:06.023Z,21.86
2022-08-31T18:14:23.389Z,21.80
2022-08-31T18:16:40.647Z,21.74
2022-08-31T18:18:57.708Z,21.57
2022-08-31T18:21:15.994Z,21.54
2022-08-31T18:23:33.022Z,21.49
2022-08-31T18:25:49.982Z,21.32
2022-08-31T18:28:07.292Z,21.15
2022-08-31T18:30:24.387Z,21.06
2022-08-31T18:32:42.440Z,20.91
2022-08-31T18:35:04.683Z,20.83
2022-08-31T18:37:21.874Z,20.76
2022-08-31T18:39:51.493Z,20.77
2022-08-31T18:42:10.336Z,20.72
2022-08-31T18:44:27.622Z,20.65
2022-08-31T18:46:45.054Z,20.60
2022-08-31T18:49:12.199Z,20.56
2022-08-31T18:51:29.826Z,20.47
2022-08-31T18:53:46.853Z,20.39
2022-08-31T18:56:03.883Z,20.32
2022-08-31T18:58:21.312Z,20.28
2022-08-31T19:00:38.480Z,20.32
2022-08-31T19:02:55.824Z,20.20
2022-08-31T19:05:12.852Z,20.08
2022-08-31T19:07:29.810Z,20.03
2022-08-31T19:09:47.070Z,19.94
2022-08-31T19:12:04.535Z,19.88
2022-08-31T19:14:21.534Z,19.84
2022-08-31T19:16:38.621Z,19.83
2022-08-31T19:18:55.820Z,19.85
2022-08-31T19:21:13.489Z,19.84
2022-08-31T19:23:30.814Z,19.90
2022-08-31T19:25:49.083Z,19.79
2022-08-31T19:28:06.181Z,19.68
2022-08-31T19:30:27.871Z,19.58
2022-08-31T19:32:45.588Z,19.48
2022-08-31T19:35:02.927Z,19.48
2022-08-31T19:37:19.850Z,19.47
2022-08-31T19:39:37.082Z,19.45
2022-08-31T19:41:54.586Z,19.39
2022-08-31T19:44:11.637Z,19.31
2022-08-31T19:46:28.932Z,19.22
2022-08-31T19:48:46.226Z,19.15
2022-08-31T19:51:03.528Z,19.17
2022-08-31T19:53:21.265Z,19.16
2022-08-31T19:55:39.916Z,19.11
2022-08-31T19:57:57.206Z,19.03
2022-08-31T20:00:15.274Z,19.07
2022-08-31T20:02:33.306Z,19.03
2022-08-31T20:04:50.241Z,19.01
2022-08-31T20:07:07.536Z,18.86
2022-08-31T20:09:27.273Z,18.79
2022-08-31T20:11:44.305Z,18.76
2022-08-31T20:14:01.379Z,18.72
2022-08-31T20:16:22.150Z,18.72
2022-08-31T20:18:43.740Z,18.73
2022-08-31T20:21:00.974Z,18.74
2022-08-31T20:23:19.454Z,18.64
2022-08-31T20:25:37.974Z,18.65
2022-08-31T20:27:56.983Z,18.64
2022-08-31T20:30:14.007Z,18.52
2022-08-31T20:32:32.064Z,18.49
2022-08-31T20:34:49.154Z,18.44
2022-08-31T20:37:06.211Z,18.45
2022-08-31T20:39:23.131Z,18.42
2022-08-31T20:41:40.087Z,18.34
2022-08-31T20:43:57.398Z,18.28
2022-08-31T20:46:14.479Z,18.22
2022-08-31T20:48:34.137Z,18.18
2022-08-31T20:50:52.197Z,18.14
2022-08-31T20:53:09.432Z,18.10
2022-08-31T20:55:26.493Z,18.06
2022-08-31T20:57:43.706Z,18.05
2022-08-31T21:00:00.760Z,18.02
2022-08-31T21:02:17.784Z,17.94
2022-08-31T21:04:34.927Z,17.92
2022-08-31T21:06:51.997Z,17.89
2022-08-31T21:09:09.228Z,17.81
2022-08-31T21:11:26.464Z,17.76
2022-08-31T21:13:43.430Z,17.72
2022-08-31T21:16:00.732Z,17.71
2022-08-31T21:18:18.050Z,17.62
2022-08-31T21:20:35.128Z,17.59
2022-08-31T21:22:52.107Z,17.53
2022-08-31T21:25:09.363Z,17.45
2022-08-31T21:27:26.406Z,17.36
2022-08-31T21:29:43.471Z,17.30
2022-08-31T21:32:03.818Z,17.22
2022-08-31T21:34:21.383Z,17.15
2022-08-31T21:36:39.348Z,17.09
2022-08-31T21:38:56.608Z,17.05
2022-08-31T21:41:13.509Z,16.99
2022-08-31T21:43:30.493Z,16.95
2022-08-31T21:45:47.445Z,16.90
2022-08-31T21:48:04.476Z,16.81
2022-08-31T21:50:21.611Z,16.73
2022-08-31T21:52:38.875Z,16.70
2022-08-31T21:54:55.828Z,16.64
2022-08-31T21:57:13.004Z,16.58
2022-08-31T21:59:29.872Z,16.54
2022-08-31T22:01:47.315Z,16.49
2022-08-31T22:04:05.357Z,16.45
2022-08-31T22:06:22.317Z,16.51
2022-08-31T22:08:44.105Z,16.39
2022-08-31T22:11:01.410Z,16.31
2022-08-31T22:13:18.501Z,16.25
2022-08-31T22:15:35.611Z,16.20
2022-08-31T22:18:25.878Z,16.19
2022-08-31T22:20:30.556Z,16.10
2022-08-31T22:22:48.078Z,16.09
2022-08-31T22:25:05.641Z,16.02
2022-08-31T22:27:23.666Z,16.01
2022-08-31T22:29:40.798Z,15.96
2022-08-31T22:31:58.258Z,15.92
2022-08-31T22:34:15.606Z,15.91
2022-08-31T22:36:32.780Z,15.87
2022-08-31T22:38:50.992Z,15.85
2022-08-31T22:41:09.153Z,15.81
2022-08-31T22:43:26.580Z,15.76
2022-08-31T22:45:48.401Z,15.73
2022-08-31T22:48:05.806Z,15.64
2022-08-31T22:50:23.783Z,15.57
2022-08-31T22:52:40.914Z,15.57
2022-08-31T22:54:57.922Z,15.51
2022-08-31T22:57:14.876Z,15.52
2022-08-31T22:59:32.183Z,15.48
2022-08-31T23:01:49.506Z,15.46
2022-08-31T23:04:06.936Z,15.43
2022-08-31T23:06:27.015Z,15.38
2022-08-31T23:08:43.945Z,15.28
2022-08-31T23:11:01.284Z,15.29
2022-08-31T23:13:18.539Z,15.28
2022-08-31T23:15:35.617Z,15.21
2022-08-31T23:17:53.579Z,15.12
2022-08-31T23:20:10.931Z,15.10
2022-08-31T23:22:27.979Z,15.11
2022-08-31T23:24:46.271Z,15.05
2022-08-31T23:27:04.820Z,14.98
2022-08-31T23:29:23.322Z,14.93
2022-08-31T23:31:40.367Z,14.90
2022-08-31T23:33:57.475Z,14.86
2022-08-31T23:36:14.749Z,14.86
2022-08-31T23:38:32.387Z,14.81
2022-08-31T23:40:49.794Z,14.81
2022-08-31T23:43:11.054Z,14.81
2022-08-31T23:45:28.153Z,14.79
2022-08-31T23:47:45.066Z,14.76
2022-08-31T23:50:02.345Z,14.71
2022-08-31T23:52:21.783Z,14.68
2022-08-31T23:54:38.885Z,14.66
2022-08-31T23:56:56.467Z,14.64
2022-08-31T23:59:13.509Z,14.62
